Time;durP1;ratioP1;P1;durP2;ratioP2;P2;SDS_P1;SDS_P2;PMS_P1;PMS_P2;Temp;Humidity;BMP_temperature;BMP_pressure;BME280_temperature;BME280_humidity;BME280_pressure;Samples;Min_cycle;Max_cycle;Signal;HPM_P1;HPM_P2
2023/09/27 00:01:02;;;;;;;24.83;5.45;;;16.90;99.90;;;;;;5051395;28;20107;-59
2023/09/27 00:03:29;;;;;;;28.13;5.63;;;16.80;99.90;;;;;;5047607;28;20048;-59
2023/09/27 00:05:56;;;;;;;22.42;4.45;;;16.80;99.90;;;;;;5051295;28;20052;-60
2023/09/27 00:08:23;;;;;;;20.98;6.05;;;16.80;99.90;;;;;;5066274;28;20041;-58
2023/09/27 00:10:50;;;;;;;20.95;5.03;;;16.80;99.90;;;;;;5063483;28;20067;-60
2023/09/27 00:13:17;;;;;;;23.85;4.78;;;16.80;99.90;;;;;;5051531;28;20040;-56
2023/09/27 00:15:44;;;;;;;23.60;5.43;;;16.80;99.90;;;;;;5051641;28;20053;-57
2023/09/27 00:18:11;;;;;;;21.08;5.00;;;16.80;99.90;;;;;;5061759;28;20055;-55
2023/09/27 00:20:37;;;;;;;16.23;5.10;;;16.80;99.90;;;;;;5063820;28;20052;-59
2023/09/27 00:23:05;;;;;;;24.67;5.50;;;16.80;99.90;;;;;;5055138;28;20044;-60
2023/09/27 00:25:32;;;;;;;23.20;5.35;;;16.80;99.90;;;;;;5051197;28;20045;-61
2023/09/27 00:27:59;;;;;;;24.95;4.68;;;16.80;99.90;;;;;;5046037;28;20049;-55
2023/09/27 00:30:26;;;;;;;19.33;4.80;;;16.70;99.90;;;;;;5064650;28;20053;-58
2023/09/27 00:32:53;;;;;;;27.08;7.05;;;16.70;99.90;;;;;;5047152;28;20045;-57
2023/09/27 00:35:22;;;;;;;21.83;5.18;;;16.70;99.90;;;;;;5050551;28;20564;-59
2023/09/27 00:37:50;;;;;;;19.35;4.97;;;16.70;99.90;;;;;;5055794;28;20051;-58
2023/09/27 00:40:21;;;;;;;28.83;5.93;;;16.60;99.90;;;;;;5049209;28;20052;-58
2023/09/27 00:42:48;;;;;;;18.92;4.43;;;16.60;99.90;;;;;;5053083;28;20085;-57
2023/09/27 00:45:17;;;;;;;17.33;4.80;;;16.60;99.90;;;;;;5067268;28;20087;-60
2023/09/27 00:47:45;;;;;;;20.08;4.88;;;16.50;99.90;;;;;;5034092;28;20045;-59
2023/09/27 00:50:12;;;;;;;19.40;4.32;;;16.60;99.90;;;;;;5050214;28;20071;-59
2023/09/27 00:52:40;;;;;;;16.92;5.00;;;16.50;99.90;;;;;;5049103;28;20049;-58
2023/09/27 00:55:10;;;;;;;14.60;4.57;;;16.40;99.90;;;;;;5013985;28;20080;-59
2023/09/27 00:57:39;;;;;;;25.98;5.32;;;16.40;99.90;;;;;;5039028;28;20094;-58
2023/09/27 01:00:10;;;;;;;22.27;5.20;;;16.40;99.90;;;;;;5051912;28;20132;-59
2023/09/27 01:02:41;;;;;;;27.27;5.95;;;16.40;99.90;;;;;;5054863;28;20106;-59
2023/09/27 01:05:11;;;;;;;18.50;4.85;;;16.40;99.90;;;;;;5068705;28;20052;-57
2023/09/27 01:07:40;;;;;;;20.13;5.20;;;16.50;99.90;;;;;;5066655;28;20044;-58
2023/09/27 01:10:08;;;;;;;28.38;5.00;;;16.40;99.90;;;;;;5055221;28;20045;-58
2023/09/27 01:12:36;;;;;;;21.60;4.90;;;16.40;99.90;;;;;;5036786;28;20041;-57
2023/09/27 01:15:06;;;;;;;19.52;3.55;;;16.40;99.90;;;;;;5065579;28;20055;-58
2023/09/27 01:17:34;;;;;;;22.05;4.78;;;16.40;99.90;;;;;;4713198;28;10000493;-58
2023/09/27 01:20:02;;;;;;;10.30;4.00;;;16.40;99.90;;;;;;5053479;28;20051;-58
2023/09/27 01:22:29;;;;;;;22.40;4.43;;;16.30;99.90;;;;;;5053814;28;20048;-59
2023/09/27 01:25:01;;;;;;;14.32;4.35;;;16.30;99.90;;;;;;5061135;28;20122;-60
2023/09/27 01:27:29;;;;;;;15.73;3.83;;;16.30;99.90;;;;;;5066670;28;20049;-58
2023/09/27 01:29:56;;;;;;;19.90;4.88;;;16.30;99.90;;;;;;5062491;28;20049;-59
2023/09/27 01:32:23;;;;;;;28.40;5.55;;;16.30;99.90;;;;;;5051891;28;20114;-58
2023/09/27 01:34:50;;;;;;;16.02;4.93;;;16.20;99.90;;;;;;5062630;28;20128;-60
2023/09/27 01:37:17;;;;;;;25.02;4.40;;;16.20;99.90;;;;;;5032977;28;20077;-56
2023/09/27 01:39:44;;;;;;;23.17;4.88;;;16.20;99.90;;;;;;5059089;28;20098;-57
2023/09/27 01:42:13;;;;;;;17.40;4.85;;;16.20;99.90;;;;;;5070689;28;20037;-58
2023/09/27 01:44:39;;;;;;;26.00;5.43;;;16.20;99.90;;;;;;5057572;28;20515;-57
2023/09/27 01:47:06;;;;;;;26.50;4.13;;;16.20;99.90;;;;;;5070833;28;20045;-58
2023/09/27 01:49:33;;;;;;;12.35;3.63;;;16.10;99.90;;;;;;5057294;28;20453;-58
2023/09/27 01:52:00;;;;;;;21.35;4.57;;;16.20;99.90;;;;;;5030070;28;20102;-57
2023/09/27 01:54:26;;;;;;;21.58;5.60;;;16.20;99.90;;;;;;5030606;28;20462;-58
2023/09/27 01:56:54;;;;;;;24.27;5.05;;;16.10;99.90;;;;;;5067032;28;20044;-57
2023/09/27 01:59:20;;;;;;;23.02;4.95;;;16.20;99.90;;;;;;5058770;28;20044;-59
2023/09/27 02:01:47;;;;;;;18.85;4.53;;;16.10;99.90;;;;;;5053669;28;20136;-60
2023/09/27 02:04:14;;;;;;;18.98;4.85;;;16.10;99.90;;;;;;5053783;28;20196;-58
2023/09/27 02:06:41;;;;;;;15.20;4.07;;;16.10;99.90;;;;;;5067149;28;20057;-58
2023/09/27 02:09:10;;;;;;;18.58;4.45;;;16.10;99.90;;;;;;5053735;28;20123;-57
2023/09/27 02:11:37;;;;;;;24.27;5.22;;;16.10;99.90;;;;;;5060868;28;20056;-58
2023/09/27 02:14:04;;;;;;;29.20;4.60;;;16.10;99.90;;;;;;5065096;28;20049;-59
2023/09/27 02:16:33;;;;;;;21.02;4.15;;;16.10;99.90;;;;;;5047697;28;20276;-59
2023/09/27 02:18:59;;;;;;;23.63;4.25;;;16.00;99.90;;;;;;5067759;28;20064;-58
2023/09/27 02:21:29;;;;;;;17.27;4.30;;;16.00;99.90;;;;;;5055913;28;20052;-59
2023/09/27 02:23:55;;;;;;;22.15;5.10;;;16.10;99.90;;;;;;5050255;28;20053;-58
2023/09/27 02:26:22;;;;;;;21.67;5.30;;;16.00;99.90;;;;;;5050403;28;20048;-56
2023/09/27 02:28:49;;;;;;;19.35;5.28;;;16.00;99.90;;;;;;5069406;28;20064;-58
2023/09/27 02:31:17;;;;;;;18.13;4.20;;;16.00;99.90;;;;;;5057145;28;20132;-57
2023/09/27 02:33:44;;;;;;;19.13;4.75;;;15.90;99.90;;;;;;5068819;28;20080;-59
2023/09/27 02:36:11;;;;;;;19.33;4.55;;;15.90;99.90;;;;;;5063683;28;20049;-58
2023/09/27 02:38:37;;;;;;;16.55;4.43;;;15.90;99.90;;;;;;5049155;28;20049;-58
2023/09/27 02:41:04;;;;;;;17.60;5.03;;;15.90;99.90;;;;;;5052913;28;20082;-58
2023/09/27 02:43:31;;;;;;;18.42;3.53;;;15.90;99.90;;;;;;5067391;28;20147;-58
2023/09/27 02:45:58;;;;;;;15.75;4.00;;;15.90;99.90;;;;;;5060707;28;20493;-56
2023/09/27 02:48:25;;;;;;;23.80;5.55;;;15.90;99.90;;;;;;5065466;28;20132;-58
2023/09/27 02:50:58;;;;;;;17.50;4.00;;;15.80;99.90;;;;;;5057816;28;20053;-57
2023/09/27 02:53:24;;;;;;;16.42;4.13;;;15.80;99.90;;;;;;5062925;28;20049;-57
2023/09/27 02:55:51;;;;;;;29.10;5.82;;;15.80;99.90;;;;;;5061527;28;20041;-57
2023/09/27 02:58:18;;;;;;;15.50;4.28;;;15.80;99.90;;;;;;5060974;28;20063;-59
2023/09/27 03:00:45;;;;;;;19.85;3.92;;;15.80;99.90;;;;;;5057146;28;20047;-59
2023/09/27 03:03:13;;;;;;;23.80;4.13;;;15.80;99.90;;;;;;5030998;28;20049;-58
2023/09/27 03:05:40;;;;;;;17.92;5.47;;;15.80;99.90;;;;;;5051778;28;20052;-61
2023/09/27 03:08:07;;;;;;;13.95;3.55;;;15.80;99.90;;;;;;5058080;28;20124;-56
2023/09/27 03:10:38;;;;;;;16.10;4.28;;;15.80;99.90;;;;;;5067892;28;20049;-59
2023/09/27 03:13:07;;;;;;;19.08;4.50;;;15.70;99.90;;;;;;5059430;28;20308;-59
2023/09/27 03:15:35;;;;;;;14.35;3.97;;;15.70;99.90;;;;;;5047950;28;20140;-57
2023/09/27 03:18:02;;;;;;;12.70;3.40;;;15.70;99.90;;;;;;5060852;28;20036;-58
2023/09/27 03:20:31;;;;;;;20.58;4.32;;;15.70;99.90;;;;;;5047930;28;20049;-58
2023/09/27 03:22:58;;;;;;;23.27;4.20;;;15.60;99.90;;;;;;5054663;28;20041;-58
2023/09/27 03:25:26;;;;;;;19.83;6.57;;;15.60;99.90;;;;;;5068199;28;20572;-59
2023/09/27 03:27:54;;;;;;;15.40;4.20;;;15.60;99.90;;;;;;5053815;28;20059;-59
2023/09/27 03:30:21;;;;;;;19.85;4.30;;;15.60;99.90;;;;;;5050801;28;20523;-58
2023/09/27 03:32:47;;;;;;;26.20;6.00;;;15.60;99.90;;;;;;5040531;28;20052;-58
2023/09/27 03:35:14;;;;;;;20.02;4.10;;;15.70;99.90;;;;;;5049868;28;20500;-58
2023/09/27 03:37:41;;;;;;;22.85;4.95;;;15.70;99.90;;;;;;5055100;28;20490;-58
2023/09/27 03:40:13;;;;;;;18.63;4.07;;;15.70;99.90;;;;;;5050347;28;20048;-57
2023/09/27 03:42:45;;;;;;;11.80;3.50;;;15.70;99.90;;;;;;5057371;28;20056;-57
2023/09/27 03:45:15;;;;;;;21.27;4.07;;;15.70;99.90;;;;;;5055719;28;20041;-57
2023/09/27 03:47:44;;;;;;;17.45;3.80;;;15.70;99.90;;;;;;5035300;28;20099;-58
2023/09/27 03:50:12;;;;;;;20.25;4.10;;;15.70;99.90;;;;;;5030079;28;20049;-58
2023/09/27 03:52:40;;;;;;;15.02;4.47;;;15.70;99.90;;;;;;5051325;28;20065;-56
2023/09/27 03:55:10;;;;;;;20.08;4.75;;;15.70;99.90;;;;;;5056143;28;20072;-57
2023/09/27 03:57:37;;;;;;;21.42;4.75;;;15.70;99.90;;;;;;5049687;28;20483;-59
2023/09/27 04:00:14;;;;;;;20.50;5.53;;;15.70;99.90;;;;;;5057982;28;20094;-57
2023/09/27 04:02:42;;;;;;;16.55;4.18;;;15.70;99.90;;;;;;5051394;28;20147;-58
2023/09/27 04:05:09;;;;;;;24.05;4.75;;;15.80;99.90;;;;;;5038998;28;20059;-57
2023/09/27 04:07:36;;;;;;;12.18;4.05;;;15.70;99.90;;;;;;5048666;28;20037;-57
2023/09/27 04:10:03;;;;;;;16.02;3.80;;;15.60;99.90;;;;;;5059273;28;20420;-57
2023/09/27 04:12:30;;;;;;;20.92;5.18;;;15.60;99.90;;;;;;5029753;28;20048;-57
2023/09/27 04:14:57;;;;;;;16.23;5.45;;;15.60;99.90;;;;;;5060004;28;20554;-57
2023/09/27 04:17:23;;;;;;;17.98;4.50;;;15.60;99.90;;;;;;5048920;28;20049;-57
2023/09/27 04:19:51;;;;;;;19.73;4.55;;;15.60;99.90;;;;;;5055616;28;20087;-57
2023/09/27 04:22:18;;;;;;;14.95;4.43;;;15.50;99.90;;;;;;5049783;28;20473;-61
2023/09/27 04:24:45;;;;;;;16.85;4.47;;;15.60;99.90;;;;;;5054124;28;20052;-59
2023/09/27 04:27:12;;;;;;;14.15;4.82;;;15.60;99.90;;;;;;5069830;28;20056;-55
2023/09/27 04:29:39;;;;;;;14.18;4.40;;;15.70;99.90;;;;;;5046262;28;20044;-57
2023/09/27 04:32:06;;;;;;;8.98;4.43;;;15.70;99.90;;;;;;5031573;28;20056;-58
2023/09/27 04:34:33;;;;;;;12.80;4.90;;;15.80;99.90;;;;;;5055415;28;20068;-59
2023/09/27 04:37:00;;;;;;;15.73;5.68;;;15.80;99.90;;;;;;5051573;28;20111;-57
2023/09/27 04:39:31;;;;;;;15.32;5.60;;;15.80;99.90;;;;;;5053128;28;20037;-57
2023/09/27 04:41:58;;;;;;;20.10;5.97;;;15.80;99.90;;;;;;5052772;28;20060;-58
2023/09/27 04:44:25;;;;;;;17.45;5.88;;;15.80;99.90;;;;;;5051031;28;20077;-58
2023/09/27 04:46:53;;;;;;;19.13;6.05;;;15.80;99.90;;;;;;5059917;28;20056;-58
2023/09/27 04:49:20;;;;;;;20.30;7.10;;;15.80;99.90;;;;;;5062138;28;20045;-54
2023/09/27 04:51:47;;;;;;;22.15;6.47;;;15.80;99.90;;;;;;5057253;28;20048;-59
2023/09/27 04:54:13;;;;;;;21.70;6.90;;;15.80;99.90;;;;;;5048362;28;20069;-58
2023/09/27 04:56:40;;;;;;;19.60;5.35;;;15.80;99.90;;;;;;5058308;28;20053;-58
2023/09/27 04:59:07;;;;;;;18.58;6.40;;;15.80;99.90;;;;;;5048414;28;20045;-57
2023/09/27 05:01:34;;;;;;;21.75;6.47;;;15.80;99.90;;;;;;5055741;28;20044;-59
2023/09/27 05:04:01;;;;;;;19.05;6.00;;;15.90;99.90;;;;;;5066776;28;20143;-59
2023/09/27 05:06:28;;;;;;;20.60;6.65;;;15.90;99.90;;;;;;5059441;28;20044;-58
2023/09/27 05:08:55;;;;;;;17.67;5.88;;;15.90;99.90;;;;;;5047165;28;20421;-59
2023/09/27 05:11:22;;;;;;;20.15;5.53;;;15.90;99.90;;;;;;5051332;28;20053;-58
2023/09/27 05:13:48;;;;;;;24.17;6.68;;;15.90;99.90;;;;;;5055110;28;20197;-58
2023/09/27 05:16:15;;;;;;;17.45;5.85;;;15.90;99.90;;;;;;5051190;28;20487;-58
2023/09/27 05:18:42;;;;;;;24.25;7.80;;;15.90;99.90;;;;;;5052623;28;20140;-58
2023/09/27 05:21:09;;;;;;;24.67;5.78;;;16.00;99.90;;;;;;5051130;28;20048;-58
2023/09/27 05:23:36;;;;;;;20.60;5.65;;;16.00;99.90;;;;;;5063139;28;20094;-59
2023/09/27 05:26:03;;;;;;;21.40;6.00;;;16.00;99.90;;;;;;5058780;28;20128;-58
2023/09/27 05:28:29;;;;;;;17.33;5.75;;;16.00;99.90;;;;;;5043193;28;20088;-59
2023/09/27 05:30:56;;;;;;;17.92;5.32;;;16.00;99.90;;;;;;5062289;28;20114;-58
2023/09/27 05:33:24;;;;;;;20.33;6.07;;;16.00;99.90;;;;;;5041541;28;20045;-58
2023/09/27 05:35:51;;;;;;;24.23;5.68;;;16.00;99.90;;;;;;5050650;28;20063;-57
2023/09/27 05:38:18;;;;;;;18.48;5.13;;;16.10;99.90;;;;;;5058238;28;20044;-57
2023/09/27 05:40:45;;;;;;;17.70;5.80;;;16.00;99.90;;;;;;5048317;28;20113;-58
2023/09/27 05:43:12;;;;;;;15.13;5.35;;;16.00;99.90;;;;;;5058762;28;20053;-58
2023/09/27 05:45:39;;;;;;;13.45;5.15;;;16.00;99.90;;;;;;5043574;28;20049;-58
2023/09/27 05:48:06;;;;;;;23.13;5.15;;;16.00;99.90;;;;;;5052043;28;20091;-55
2023/09/27 05:50:34;;;;;;;23.83;6.15;;;16.00;99.90;;;;;;5057633;28;20041;-58
2023/09/27 05:53:01;;;;;;;20.02;5.80;;;16.00;99.90;;;;;;5043453;28;20488;-58
2023/09/27 05:55:28;;;;;;;24.42;6.68;;;16.00;99.90;;;;;;5056161;28;20492;-57
2023/09/27 05:57:55;;;;;;;19.13;5.90;;;16.00;99.90;;;;;;5058585;28;20060;-58
2023/09/27 06:00:26;;;;;;;19.67;6.22;;;16.00;99.90;;;;;;5043094;28;20095;-57
2023/09/27 06:02:53;;;;;;;24.50;5.47;;;16.00;99.90;;;;;;5062561;28;20451;-58
2023/09/27 06:05:20;;;;;;;27.08;6.65;;;16.00;99.90;;;;;;5045669;28;20060;-57
2023/09/27 06:07:47;;;;;;;19.40;5.07;;;16.00;99.90;;;;;;5050701;28;20519;-59
2023/09/27 06:10:14;;;;;;;17.48;5.80;;;16.10;99.90;;;;;;5057407;28;21901;-58
2023/09/27 06:12:41;;;;;;;20.08;5.97;;;16.00;99.90;;;;;;5030306;28;20103;-56
2023/09/27 06:15:09;;;;;;;18.08;5.50;;;16.00;99.90;;;;;;5039786;28;20045;-58
2023/09/27 06:17:37;;;;;;;17.38;5.15;;;16.00;99.90;;;;;;5042230;28;20479;-58
2023/09/27 06:20:05;;;;;;;15.13;4.95;;;16.10;99.90;;;;;;5048096;28;20043;-56
2023/09/27 06:22:33;;;;;;;11.70;3.88;;;16.10;99.90;;;;;;5035532;28;20051;-58
2023/09/27 06:24:59;;;;;;;16.08;5.68;;;16.10;99.90;;;;;;5036968;28;20044;-57
2023/09/27 06:27:27;;;;;;;20.77;5.43;;;16.10;99.90;;;;;;5042562;28;20052;-58
2023/09/27 06:29:54;;;;;;;16.77;5.00;;;16.10;99.90;;;;;;5039427;28;20045;-57
2023/09/27 06:32:22;;;;;;;20.98;5.78;;;16.10;99.90;;;;;;5047129;28;20045;-58
2023/09/27 06:34:52;;;;;;;18.63;5.30;;;16.10;99.90;;;;;;5025023;28;20045;-57
2023/09/27 06:37:19;;;;;;;20.33;5.05;;;16.10;99.90;;;;;;5046894;28;20444;-58
2023/09/27 06:39:46;;;;;;;18.80;6.45;;;16.10;99.90;;;;;;5051120;28;20393;-57
2023/09/27 06:42:13;;;;;;;12.75;4.47;;;16.10;99.90;;;;;;5046017;28;20154;-58
2023/09/27 06:44:41;;;;;;;19.40;5.25;;;16.20;99.90;;;;;;5053781;28;20045;-59
2023/09/27 06:47:08;;;;;;;15.55;4.80;;;16.20;99.90;;;;;;5040445;28;20488;-57
2023/09/27 06:49:35;;;;;;;15.27;4.25;;;16.30;99.90;;;;;;5048708;28;20063;-56
2023/09/27 06:52:01;;;;;;;15.80;4.50;;;16.30;99.90;;;;;;5054054;28;20053;-58
2023/09/27 06:54:29;;;;;;;16.13;4.40;;;16.40;99.90;;;;;;5052830;28;20041;-58
2023/09/27 06:56:55;;;;;;;22.90;6.07;;;16.40;99.90;;;;;;5048349;28;20081;-58
2023/09/27 06:59:22;;;;;;;10.38;4.13;;;16.40;99.90;;;;;;5054331;28;20044;-58
2023/09/27 07:01:49;;;;;;;17.15;4.90;;;16.50;99.90;;;;;;5044174;28;20053;-58
2023/09/27 07:04:16;;;;;;;17.55;6.32;;;16.60;99.90;;;;;;5029487;28;20040;-58
2023/09/27 07:06:45;;;;;;;14.38;5.28;;;16.60;99.90;;;;;;5045288;28;20107;-59
2023/09/27 07:09:13;;;;;;;17.55;4.60;;;16.70;99.90;;;;;;5048104;28;20040;-59
2023/09/27 07:11:42;;;;;;;16.23;4.03;;;16.80;99.90;;;;;;5056398;28;20049;-58
2023/09/27 07:14:09;;;;;;;14.43;5.55;;;16.80;99.90;;;;;;5037299;28;20045;-56
2023/09/27 07:16:36;;;;;;;15.57;5.15;;;16.80;99.90;;;;;;5041062;28;20090;-58
2023/09/27 07:19:21;;;;;;;19.95;5.35;;;16.90;99.90;;;;;;5047207;28;20048;-61
2023/09/27 07:21:48;;;;;;;11.25;3.60;;;16.90;99.90;;;;;;5046241;28;20061;-57
2023/09/27 07:24:15;;;;;;;15.27;4.35;;;17.00;99.90;;;;;;5043587;28;20045;-58
2023/09/27 07:26:43;;;;;;;15.75;3.72;;;17.10;99.90;;;;;;5055478;28;20114;-56
2023/09/27 07:29:12;;;;;;;16.52;4.10;;;17.20;99.90;;;;;;5056878;28;20076;-56
2023/09/27 07:31:40;;;;;;;15.95;5.00;;;17.30;99.90;;;;;;5052549;28;20637;-57
2023/09/27 07:34:06;;;;;;;17.75;4.70;;;17.30;99.90;;;;;;5046531;28;20102;-57
2023/09/27 07:36:33;;;;;;;14.38;6.20;;;17.40;99.90;;;;;;5041199;28;20450;-57
2023/09/27 07:39:09;;;;;;;21.48;7.50;;;17.50;99.90;;;;;;5037206;28;20047;-58
2023/09/27 07:41:36;;;;;;;20.02;8.85;;;17.50;99.90;;;;;;5045375;28;20110;-59
2023/09/27 07:44:07;;;;;;;24.95;10.35;;;17.50;99.90;;;;;;5018738;28;20083;-57
2023/09/27 07:46:33;;;;;;;18.80;6.47;;;17.60;99.90;;;;;;5044536;28;20136;-57
2023/09/27 07:49:00;;;;;;;25.17;7.28;;;17.60;99.90;;;;;;5045344;28;20562;-58
2023/09/27 07:51:27;;;;;;;20.35;6.82;;;17.70;99.90;;;;;;5052038;28;20049;-60
2023/09/27 07:53:54;;;;;;;21.08;5.10;;;17.70;99.90;;;;;;5041442;28;20175;-57
2023/09/27 07:56:22;;;;;;;13.90;4.80;;;17.80;99.90;;;;;;5043558;28;20080;-58
2023/09/27 07:58:51;;;;;;;23.85;5.55;;;17.80;99.90;;;;;;5034110;28;20489;-59
2023/09/27 08:01:20;;;;;;;13.40;4.78;;;17.80;99.90;;;;;;5032329;28;20077;-57
2023/09/27 08:03:53;;;;;;;15.55;5.15;;;17.80;99.90;;;;;;5041910;28;20566;-58
2023/09/27 08:06:23;;;;;;;11.90;3.88;;;17.80;99.90;;;;;;5044007;28;20053;-59
2023/09/27 08:08:51;;;;;;;15.15;4.32;;;17.80;99.90;;;;;;5040713;28;20057;-59
2023/09/27 08:11:19;;;;;;;15.85;3.88;;;17.90;99.90;;;;;;5044600;28;20052;-58
2023/09/27 08:13:46;;;;;;;16.63;5.50;;;17.90;99.90;;;;;;5041503;28;20059;-58
2023/09/27 08:16:13;;;;;;;11.38;4.28;;;17.90;99.90;;;;;;5037061;28;20102;-58
2023/09/27 08:18:43;;;;;;;16.25;4.65;;;17.90;99.90;;;;;;5050537;28;20084;-58
2023/09/27 08:21:10;;;;;;;13.25;4.45;;;18.00;99.90;;;;;;5040376;28;20512;-58
2023/09/27 08:23:37;;;;;;;18.55;4.50;;;18.00;99.90;;;;;;5042660;28;20132;-59
2023/09/27 08:26:04;;;;;;;15.98;4.30;;;18.10;99.90;;;;;;5041000;28;20076;-57
2023/09/27 08:28:31;;;;;;;15.23;4.60;;;18.10;99.90;;;;;;5059228;28;20070;-57
2023/09/27 08:30:59;;;;;;;13.73;4.53;;;18.10;99.90;;;;;;5052999;28;20064;-57
2023/09/27 08:33:27;;;;;;;16.65;4.50;;;18.20;99.90;;;;;;5055283;28;20450;-57
2023/09/27 08:35:54;;;;;;;23.88;4.20;;;18.20;99.90;;;;;;5050461;28;20076;-58
2023/09/27 08:38:24;;;;;;;12.82;4.18;;;18.20;99.90;;;;;;5048759;28;20129;-57
2023/09/27 08:40:54;;;;;;;14.13;4.78;;;18.30;99.90;;;;;;5030119;28;20064;-59
2023/09/27 08:43:22;;;;;;;16.75;4.13;;;18.30;99.90;;;;;;5026271;28;20041;-57
2023/09/27 08:45:51;;;;;;;24.95;5.13;;;18.30;99.90;;;;;;5030193;28;20476;-57
2023/09/27 08:48:20;;;;;;;18.50;4.53;;;18.40;99.90;;;;;;5026645;28;20053;-57
2023/09/27 08:50:47;;;;;;;17.75;4.53;;;18.40;99.90;;;;;;5048211;28;20072;-63
2023/09/27 08:53:14;;;;;;;9.35;3.20;;;18.40;99.90;;;;;;5026030;28;20098;-58
2023/09/27 08:55:47;;;;;;;18.63;3.67;;;18.40;99.90;;;;;;5059592;28;20542;-59
2023/09/27 08:58:18;;;;;;;13.98;3.83;;;18.40;99.90;;;;;;5046750;28;20099;-59
2023/09/27 09:00:45;;;;;;;19.58;3.97;;;18.50;99.90;;;;;;5006135;28;20056;-60
2023/09/27 09:03:12;;;;;;;13.85;3.22;;;18.80;99.90;;;;;;5020665;28;20569;-60
2023/09/27 09:05:40;;;;;;;13.90;4.00;;;19.10;99.90;;;;;;5022947;28;20135;-60
2023/09/27 09:08:07;;;;;;;9.95;3.17;;;19.60;99.90;;;;;;5026182;28;20385;-59
2023/09/27 09:10:34;;;;;;;12.45;3.45;;;20.00;99.90;;;;;;5055540;28;20052;-61
2023/09/27 09:13:00;;;;;;;15.15;4.53;;;20.20;99.90;;;;;;5037565;28;20048;-60
2023/09/27 09:15:35;;;;;;;9.35;3.90;;;20.20;99.90;;;;;;5022638;28;20045;-59
2023/09/27 09:18:06;;;;;;;14.75;4.35;;;20.10;99.90;;;;;;5053864;28;20041;-63
2023/09/27 09:20:48;;;;;;;15.52;4.07;;;19.90;99.90;;;;;;5042473;28;20044;-59
2023/09/27 09:23:31;;;;;;;10.35;3.80;;;20.00;99.90;;;;;;5045377;28;20476;-61
2023/09/27 09:25:58;;;;;;;7.47;3.23;;;19.90;99.90;;;;;;5041970;28;20466;-57
2023/09/27 09:28:26;;;;;;;16.75;3.15;;;19.90;99.90;;;;;;5051464;28;20068;-60
2023/09/27 09:30:54;;;;;;;11.73;3.35;;;19.80;99.90;;;;;;5044531;28;20045;-58
2023/09/27 09:33:22;;;;;;;13.32;3.30;;;19.90;99.90;;;;;;5049396;28;20044;-59
2023/09/27 09:35:51;;;;;;;13.80;3.33;;;19.80;99.90;;;;;;5052132;28;20132;-59
2023/09/27 09:38:30;;;;;;;12.25;2.50;;;19.70;99.90;;;;;;5038773;28;20060;-58
2023/09/27 09:40:58;;;;;;;8.20;3.55;;;19.60;99.90;;;;;;5063439;28;20105;-60
2023/09/27 09:43:36;;;;;;;11.30;3.85;;;19.60;99.90;;;;;;5056971;28;20481;-59
2023/09/27 09:46:06;;;;;;;18.20;4.53;;;19.50;99.90;;;;;;5039469;28;20044;-59
2023/09/27 09:48:34;;;;;;;15.80;3.42;;;19.50;99.90;;;;;;5033840;28;20419;-59
2023/09/27 09:51:07;;;;;;;16.95;3.88;;;19.50;99.90;;;;;;5046789;28;20099;-57
2023/09/27 09:53:38;;;;;;;10.18;3.35;;;19.40;99.90;;;;;;5012201;28;20107;-60
2023/09/27 09:56:10;;;;;;;12.18;2.80;;;19.40;99.90;;;;;;5055941;28;20040;-59
2023/09/27 09:58:47;;;;;;;7.28;2.55;;;19.40;99.90;;;;;;5069080;28;20159;-61
2023/09/27 10:01:21;;;;;;;11.25;3.95;;;19.50;99.90;;;;;;5055577;28;20052;-57
2023/09/27 10:03:51;;;;;;;19.95;2.92;;;19.50;99.90;;;;;;5051371;28;20516;-58
2023/09/27 10:06:19;;;;;;;7.70;2.25;;;19.60;99.90;;;;;;5061303;28;20491;-58
2023/09/27 10:08:58;;;;;;;10.18;2.83;;;19.60;99.90;;;;;;5048727;28;20044;-59
2023/09/27 10:11:26;;;;;;;9.15;2.50;;;19.60;99.90;;;;;;5051868;28;20223;-62
2023/09/27 10:13:53;;;;;;;10.90;2.45;;;19.70;99.90;;;;;;5049903;28;20259;-58
2023/09/27 10:16:23;;;;;;;9.50;3.00;;;19.80;99.90;;;;;;5053655;28;20045;-58
2023/09/27 10:18:52;;;;;;;9.70;2.70;;;19.90;99.90;;;;;;5040552;28;20045;-60
2023/09/27 10:21:19;;;;;;;9.73;2.60;;;20.00;99.90;;;;;;5036087;28;20507;-59
2023/09/27 10:23:49;;;;;;;11.65;3.10;;;20.00;99.90;;;;;;5066858;28;20516;-59
2023/09/27 10:26:28;;;;;;;9.90;2.97;;;20.00;99.90;;;;;;5060994;28;20106;-58
2023/09/27 10:29:06;;;;;;;8.60;2.30;;;20.00;99.90;;;;;;5067371;28;20135;-59
2023/09/27 10:31:36;;;;;;;8.00;2.30;;;20.10;99.90;;;;;;5064727;28;20106;-58
2023/09/27 10:34:03;;;;;;;6.78;2.28;;;20.10;99.90;;;;;;5052247;28;20082;-56
2023/09/27 10:36:30;;;;;;;9.50;3.05;;;20.20;99.90;;;;;;5035632;28;20103;-59
2023/09/27 10:38:57;;;;;;;13.55;3.13;;;20.30;99.90;;;;;;5064880;28;20071;-60
2023/09/27 10:41:38;;;;;;;8.32;2.80;;;20.20;99.90;;;;;;5064528;28;20294;-58
2023/09/27 10:44:05;;;;;;;6.20;2.55;;;20.30;99.90;;;;;;5054684;28;20053;-60
2023/09/27 10:46:45;;;;;;;9.52;2.90;;;20.30;99.90;;;;;;5053847;28;20040;-59
2023/09/27 10:49:13;;;;;;;10.18;2.70;;;20.30;99.90;;;;;;5053954;28;20075;-57
2023/09/27 10:51:43;;;;;;;7.65;2.33;;;20.30;99.90;;;;;;5035184;28;20049;-59
2023/09/27 10:54:15;;;;;;;6.40;2.92;;;20.40;99.90;;;;;;5049530;28;20053;-60
2023/09/27 10:56:44;;;;;;;11.85;3.22;;;20.60;99.90;;;;;;5035366;28;20049;-60
2023/09/27 10:59:13;;;;;;;13.20;2.75;;;20.60;99.90;;;;;;5059857;28;20139;-59
2023/09/27 11:01:43;;;;;;;7.53;2.75;;;20.70;99.90;;;;;;5046700;28;20057;-60
2023/09/27 11:04:12;;;;;;;6.70;2.65;;;20.70;99.90;;;;;;5065493;28;20090;-59
2023/09/27 11:06:39;;;;;;;6.80;3.13;;;20.80;99.90;;;;;;5065758;28;20052;-59
2023/09/27 11:09:12;;;;;;;8.75;3.25;;;20.90;99.90;;;;;;5056081;28;20048;-60
2023/09/27 11:11:43;;;;;;;5.75;2.22;;;21.00;99.90;;;;;;5053997;28;20048;-59
2023/09/27 11:14:09;;;;;;;13.07;3.40;;;21.00;99.90;;;;;;5057517;28;20046;-60
2023/09/27 11:16:36;;;;;;;8.05;2.65;;;21.00;99.90;;;;;;5068024;28;20128;-58
2023/09/27 11:19:04;;;;;;;7.50;2.17;;;21.10;99.90;;;;;;5042684;28;20053;-57
2023/09/27 11:21:31;;;;;;;7.93;2.15;;;21.20;99.90;;;;;;5030999;28;20045;-59
2023/09/27 11:24:04;;;;;;;5.80;2.90;;;21.20;99.90;;;;;;5055140;28;20061;-59
2023/09/27 11:26:32;;;;;;;9.23;2.75;;;21.30;99.90;;;;;;5068426;28;20059;-58
2023/09/27 11:29:07;;;;;;;5.97;2.45;;;21.30;99.90;;;;;;5062491;28;20052;-58
2023/09/27 11:31:37;;;;;;;5.47;1.90;;;21.30;99.90;;;;;;5031069;28;20067;-58
2023/09/27 11:34:17;;;;;;;5.22;1.92;;;21.30;99.90;;;;;;5061085;28;20258;-56
2023/09/27 11:36:45;;;;;;;7.53;2.38;;;21.30;99.90;;;;;;5048590;28;20049;-59
2023/09/27 11:39:15;;;;;;;5.25;2.65;;;21.40;99.90;;;;;;5060614;28;20487;-59
2023/09/27 11:41:43;;;;;;;9.90;2.50;;;21.40;99.90;;;;;;5047351;28;20135;-59
2023/09/27 11:44:20;;;;;;;5.18;1.83;;;21.40;99.90;;;;;;5052104;28;20514;-58
2023/09/27 11:46:49;;;;;;;8.00;2.28;;;21.40;99.90;;;;;;5068490;28;20430;-58
2023/09/27 11:49:25;;;;;;;11.30;3.17;;;21.40;99.90;;;;;;5057682;28;20047;-59
2023/09/27 11:51:52;;;;;;;4.97;2.38;;;21.40;99.90;;;;;;5049520;28;20044;-59
2023/09/27 11:54:19;;;;;;;11.50;2.35;;;21.40;99.90;;;;;;5063611;28;20090;-58
2023/09/27 11:56:46;;;;;;;6.53;2.20;;;21.40;99.90;;;;;;5051085;28;20045;-57
2023/09/27 11:59:14;;;;;;;4.78;1.92;;;21.40;99.90;;;;;;5054423;28;20053;-58
2023/09/27 12:01:41;;;;;;;4.68;2.30;;;21.50;99.90;;;;;;5053543;28;20055;-59
2023/09/27 12:04:07;;;;;;;8.35;2.42;;;21.40;99.90;;;;;;5052423;28;20195;-58
2023/09/27 12:06:35;;;;;;;6.35;2.58;;;21.40;99.90;;;;;;5055404;28;20055;-59
2023/09/27 12:09:05;;;;;;;7.70;2.47;;;21.40;99.90;;;;;;5051394;28;20052;-58
2023/09/27 12:11:32;;;;;;;6.65;2.40;;;21.40;99.90;;;;;;5058170;28;20068;-59
2023/09/27 12:13:59;;;;;;;5.75;2.28;;;21.40;99.90;;;;;;5064188;28;20055;-59
2023/09/27 12:16:26;;;;;;;5.50;2.05;;;21.40;99.90;;;;;;5059897;28;20044;-58
2023/09/27 12:18:53;;;;;;;6.63;2.42;;;21.40;99.90;;;;;;5052175;28;20077;-55
2023/09/27 12:21:21;;;;;;;5.60;2.65;;;21.50;99.90;;;;;;5060809;28;20048;-59
2023/09/27 12:23:48;;;;;;;10.60;3.05;;;21.60;99.90;;;;;;5047683;28;20049;-57
2023/09/27 12:26:14;;;;;;;8.20;2.42;;;21.60;99.90;;;;;;5054481;28;20127;-57
2023/09/27 12:28:42;;;;;;;4.25;1.80;;;21.70;99.90;;;;;;5066295;28;20056;-59
2023/09/27 12:31:11;;;;;;;10.60;3.75;;;21.70;99.90;;;;;;5061382;28;20102;-58
2023/09/27 12:33:38;;;;;;;6.53;2.10;;;21.60;99.90;;;;;;5047461;28;20041;-59
2023/09/27 12:36:05;;;;;;;6.70;2.97;;;21.60;99.90;;;;;;5059555;28;20083;-59
2023/09/27 12:38:32;;;;;;;9.02;2.42;;;21.60;99.90;;;;;;5027433;28;20103;-57
2023/09/27 12:41:01;;;;;;;7.18;2.50;;;21.40;99.90;;;;;;5052165;28;20091;-58
2023/09/27 12:43:28;;;;;;;10.32;2.13;;;21.40;99.90;;;;;;5050326;28;20158;-60